Time;durP1;ratioP1;P1;durP2;ratioP2;P2;SDS_P1;SDS_P2;PMS_P1;PMS_P2;Temp;Humidity;BMP_temperature;BMP_pressure;BME280_temperature;BME280_humidity;BME280_pressure;Samples;Min_cycle;Max_cycle;Signal;HPM_P1;HPM_P2
2023/02/26 00:00:44;;;;;;;7.68;2.70;;;;;;;-0.51;92.21;100009.31;20862852;28;20049;-82
2023/02/26 00:10:46;;;;;;;8.30;3.00;;;;;;;-0.45;91.76;100003.44;20857368;28;20057;-83
2023/02/26 00:20:48;;;;;;;9.65;3.30;;;;;;;-0.65;92.60;100006.44;20853800;28;20073;-84
2023/02/26 00:30:49;;;;;;;7.70;2.50;;;;;;;-0.69;91.75;100014.03;20854074;28;20067;-85
2023/02/26 00:40:53;;;;;;;6.57;2.85;;;;;;;-0.74;91.91;100018.19;20852134;28;20107;-84
2023/02/26 00:50:55;;;;;;;5.53;2.50;;;;;;;-0.88;91.85;100008.47;20855482;28;20046;-85
2023/02/26 01:00:56;;;;;;;7.13;2.88;;;;;;;-0.86;91.86;100024.81;20849709;28;20049;-85
2023/02/26 01:10:57;;;;;;;6.05;2.22;;;;;;;-0.91;91.58;100012.66;20848281;28;20053;-85
2023/02/26 01:20:59;;;;;;;5.00;2.10;;;;;;;-0.88;90.57;100020.44;20862213;28;20041;-84
2023/02/26 01:31:00;;;;;;;4.82;2.28;;;;;;;-0.94;91.41;100013.47;20856668;28;20103;-84
2023/02/26 01:41:02;;;;;;;5.80;2.00;;;;;;;-1.06;92.84;100018.28;20852147;28;20045;-85
2023/02/26 01:51:03;;;;;;;6.10;2.00;;;;;;;-1.18;93.92;100023.13;20864936;28;20049;-82
2023/02/26 02:01:04;;;;;;;7.68;2.45;;;;;;;-1.23;93.48;100022.16;20863894;28;20053;-82
2023/02/26 02:11:05;;;;;;;7.53;2.55;;;;;;;-1.41;95.53;100028.53;20892512;28;20071;-82
2023/02/26 02:21:07;;;;;;;7.80;2.20;;;;;;;-1.44;97.51;100020.75;20926571;28;20068;-82
2023/02/26 02:31:08;;;;;;;5.07;2.67;;;;;;;-1.39;97.01;100028.56;20862681;28;20041;-83
2023/02/26 02:41:10;;;;;;;10.10;2.78;;;;;;;-1.48;98.17;100038.63;20844181;28;20092;-83
2023/02/26 02:51:11;;;;;;;8.48;2.55;;;;;;;-1.39;98.70;100046.53;20829399;28;20044;-82
2023/02/26 03:01:12;;;;;;;9.68;2.90;;;;;;;-1.50;100.00;100053.97;20842538;28;20602;-82
2023/02/26 03:11:14;;;;;;;5.38;2.08;;;;;;;-1.46;100.00;100060.06;20848711;28;20273;-82
2023/02/26 03:21:15;;;;;;;7.32;2.78;;;;;;;-1.25;100.00;100072.59;20849636;28;20049;-83
2023/02/26 03:31:16;;;;;;;9.80;2.83;;;;;;;-1.33;100.00;100085.25;20841928;28;20052;-82
2023/02/26 03:41:18;;;;;;;6.55;2.10;;;;;;;-1.32;100.00;100090.41;20845427;28;20033;-86
2023/02/26 03:51:19;;;;;;;7.15;2.50;;;;;;;-1.36;100.00;100098.00;20856321;28;20095;-82
2023/02/26 04:01:20;;;;;;;6.70;2.40;;;;;;;-1.40;100.00;100099.59;20853434;28;20049;-83
2023/02/26 04:11:22;;;;;;;8.52;2.25;;;;;;;-1.49;100.00;100109.59;20854372;28;20041;-83
2023/02/26 04:21:23;;;;;;;7.25;2.78;;;;;;;-1.40;100.00;100121.84;20846095;28;20048;-84
2023/02/26 04:31:24;;;;;;;6.93;2.80;;;;;;;-1.51;100.00;100134.38;20849175;28;20103;-84
2023/02/26 04:41:26;;;;;;;7.80;2.90;;;;;;;-1.55;100.00;100135.13;20852497;28;20053;-84
2023/02/26 04:51:27;;;;;;;13.85;3.03;;;;;;;-1.66;100.00;100137.38;20866603;28;20064;-84
2023/02/26 05:01:30;;;;;;;6.25;2.42;;;;;;;-1.67;100.00;100145.91;20863767;28;20237;-84
2023/02/26 05:11:32;;;;;;;8.93;2.97;;;;;;;-1.72;100.00;100152.63;20879631;28;20049;-84
2023/02/26 05:21:36;;;;;;;9.65;2.80;;;;;;;-1.72;100.00;100157.75;20886611;28;20168;-85
2023/02/26 05:31:37;;;;;;;8.05;2.50;;;;;;;-1.71;100.00;100174.00;20863438;28;20075;-85
2023/02/26 05:41:39;;;;;;;10.32;2.45;;;;;;;-1.78;100.00;100192.59;20853147;28;20048;-85
2023/02/26 05:51:41;;;;;;;9.15;2.70;;;;;;;-1.86;100.00;100205.22;20857980;28;20494;-85
2023/02/26 06:01:43;;;;;;;7.13;2.40;;;;;;;-1.99;100.00;100213.34;20846483;28;20084;-84
2023/02/26 06:11:44;;;;;;;8.90;2.35;;;;;;;-1.96;100.00;100218.59;20869814;28;20449;-84
2023/02/26 06:21:46;;;;;;;14.25;2.83;;;;;;;-1.87;100.00;100235.16;20864928;28;20678;-85
2023/02/26 06:31:47;;;;;;;10.55;2.95;;;;;;;-1.90;100.00;100252.13;20851689;28;20048;-84
2023/02/26 06:41:48;;;;;;;6.28;3.13;;;;;;;-1.81;100.00;100280.66;20862856;28;20053;-83
2023/02/26 06:51:49;;;;;;;12.57;3.95;;;;;;;-1.89;100.00;100293.22;20869496;28;20053;-84
2023/02/26 07:01:51;;;;;;;7.40;2.92;;;;;;;-1.87;100.00;100311.22;20861310;28;20544;-84
2023/02/26 07:11:52;;;;;;;18.00;3.53;;;;;;;-1.80;100.00;100328.59;20852226;28;20049;-84
2023/02/26 07:21:55;;;;;;;7.83;3.40;;;;;;;-1.51;100.00;100341.47;20834024;28;20049;-83
2023/02/26 07:31:56;;;;;;;11.73;3.67;;;;;;;-1.28;100.00;100344.78;20843286;28;20650;-83
2023/02/26 07:41:58;;;;;;;9.93;3.50;;;;;;;-1.00;100.00;100361.91;20835181;28;20759;-83
2023/02/26 07:51:59;;;;;;;12.30;4.25;;;;;;;-0.79;100.00;100368.53;20833071;28;20096;-83
2023/02/26 08:02:00;;;;;;;12.18;4.53;;;;;;;-0.61;100.00;100373.34;20841298;28;20094;-83
2023/02/26 08:12:02;;;;;;;14.32;4.78;;;;;;;-0.52;100.00;100371.03;20829959;28;20048;-83
2023/02/26 08:22:04;;;;;;;10.40;4.00;;;;;;;-0.58;100.00;100380.25;20830281;28;20049;-83
2023/02/26 08:32:05;;;;;;;11.05;4.10;;;;;;;-0.38;100.00;100386.88;20830188;28;20045;-82
2023/02/26 08:42:06;;;;;;;10.77;3.72;;;;;;;-0.35;100.00;100401.50;20834348;28;20054;-83
2023/02/26 08:52:08;;;;;;;10.43;3.28;;;;;;;-0.42;100.00;100426.19;20839499;28;20045;-83
2023/02/26 09:02:12;;;;;;;8.20;3.63;;;;;;;-0.18;100.00;100420.00;20848827;28;20461;-82
2023/02/26 09:12:15;;;;;;;10.40;3.40;;;;;;;0.03;100.00;100423.16;20844010;28;20050;-82
2023/02/26 09:22:17;;;;;;;8.97;3.30;;;;;;;0.46;100.00;100438.03;20824500;28;20049;-82
2023/02/26 09:32:18;;;;;;;10.23;3.17;;;;;;;0.63;100.00;100430.72;20831163;28;20037;-82
2023/02/26 09:42:19;;;;;;;10.13;3.15;;;;;;;0.96;98.14;100432.38;20871022;28;20504;-81
2023/02/26 09:52:21;;;;;;;11.13;3.90;;;;;;;0.93;96.18;100435.75;20924507;28;20080;-82
2023/02/26 10:02:22;;;;;;;7.68;2.78;;;;;;;0.97;94.31;100447.88;20864301;28;20041;-81
2023/02/26 10:12:23;;;;;;;5.93;2.53;;;;;;;1.04;89.94;100448.88;20849791;28;20042;-79
2023/02/26 10:22:25;;;;;;;6.70;2.40;;;;;;;1.21;89.24;100467.34;20847656;28;20049;-78
2023/02/26 10:32:26;;;;;;;8.30;2.67;;;;;;;1.09;85.89;100467.03;20855429;28;20041;-79
2023/02/26 10:42:27;;;;;;;5.25;2.30;;;;;;;1.07;85.38;100471.31;20853812;28;20045;-82
2023/02/26 10:52:29;;;;;;;8.48;2.25;;;;;;;1.19;86.70;100481.88;20853697;28;20045;-82
2023/02/26 11:02:30;;;;;;;5.28;2.08;;;;;;;1.44;86.22;100480.75;20863415;28;20045;-82
2023/02/26 11:12:31;;;;;;;9.73;3.17;;;;;;;1.28;85.57;100490.72;20855334;28;20124;-81
2023/02/26 11:22:33;;;;;;;5.63;1.77;;;;;;;1.47;83.71;100494.56;20839818;28;20057;-79
2023/02/26 11:32:34;;;;;;;3.58;2.00;;;;;;;1.64;82.24;100507.88;20836223;28;20045;-79
2023/02/26 11:42:35;;;;;;;6.65;2.65;;;;;;;1.92;81.48;100500.72;20837693;28;20132;-79
2023/02/26 11:52:36;;;;;;;6.78;1.40;;;;;;;2.10;78.77;100516.56;20832759;28;20045;-80
2023/02/26 12:02:38;;;;;;;4.45;1.17;;;;;;;1.91;81.38;100517.91;20842517;28;20103;-81
2023/02/26 12:12:42;;;;;;;2.22;1.00;;;;;;;2.18;81.01;100506.41;20844251;28;20137;-80
2023/02/26 12:22:43;;;;;;;2.00;0.90;;;;;;;2.14;77.29;100508.03;20844013;28;20501;-80
2023/02/26 12:32:45;;;;;;;2.05;0.93;;;;;;;2.00;78.70;100510.34;20830215;28;20053;-82
2023/02/26 12:42:46;;;;;;;2.95;1.05;;;;;;;2.11;75.85;100520.03;20846313;28;20426;-81
2023/02/26 12:52:48;;;;;;;4.03;1.40;;;;;;;2.03;76.29;100504.38;20848263;28;20068;-81
2023/02/26 13:02:50;;;;;;;4.95;1.27;;;;;;;2.11;71.06;100512.28;20836831;28;20486;-81
2023/02/26 13:12:51;;;;;;;2.65;1.08;;;;;;;2.41;69.02;100506.84;20837815;28;20052;-81
2023/02/26 13:22:55;;;;;;;1.73;0.80;;;;;;;2.46;65.75;100507.81;20871934;28;20038;-80
2023/02/26 13:32:56;;;;;;;4.20;1.58;;;;;;;2.89;65.16;100495.66;20917748;28;20052;-81
2023/02/26 13:42:57;;;;;;;5.10;1.67;;;;;;;2.92;64.76;100498.28;20845455;28;20061;-81
2023/02/26 13:52:59;;;;;;;2.47;0.82;;;;;;;2.92;64.14;100511.19;20851428;28;20072;-79
2023/02/26 14:03:00;;;;;;;5.10;2.30;;;;;;;2.92;60.44;100508.63;20853460;28;20095;-80
2023/02/26 14:13:01;;;;;;;4.75;1.88;;;;;;;2.90;59.51;100507.72;20848513;28;20116;-80
2023/02/26 14:23:03;;;;;;;2.45;0.80;;;;;;;2.85;62.22;100537.81;20826288;28;20045;-80
2023/02/26 14:33:04;;;;;;;3.22;1.15;;;;;;;2.87;61.86;100536.97;20836725;28;20091;-80
2023/02/26 14:43:05;;;;;;;4.47;1.80;;;;;;;2.98;61.20;100556.16;20831053;28;20092;-80
2023/02/26 14:53:07;;;;;;;3.20;1.08;;;;;;;2.76;61.26;100547.13;20830505;28;20483;-79
2023/02/26 15:03:08;;;;;;;3.17;1.05;;;;;;;2.83;61.18;100549.00;20833173;28;20660;-80
2023/02/26 15:13:10;;;;;;;2.17;1.00;;;;;;;2.91;61.10;100566.34;20832870;28;20077;-80
2023/02/26 15:23:12;;;;;;;3.08;1.10;;;;;;;2.77;61.71;100579.91;20828215;28;20044;-80
2023/02/26 15:33:15;;;;;;;3.53;1.30;;;;;;;2.92;60.33;100583.63;20826064;28;20073;-79
2023/02/26 15:43:16;;;;;;;4.10;1.30;;;;;;;2.89;60.41;100578.41;20854303;28;20132;-80
2023/02/26 15:53:18;;;;;;;3.47;0.95;;;;;;;2.81;58.11;100580.84;20834578;28;20600;-80
2023/02/26 16:03:19;;;;;;;2.83;1.00;;;;;;;2.65;58.18;100602.09;20871571;28;20041;-80
2023/02/26 16:13:20;;;;;;;7.13;1.92;;;;;;;2.40;60.38;100614.53;20848964;28;20052;-80
2023/02/26 16:23:22;;;;;;;2.75;1.17;;;;;;;2.28;60.72;100640.09;20840361;28;20042;-81
2023/02/26 16:33:23;;;;;;;2.85;1.13;;;;;;;2.38;59.48;100643.72;20840410;28;20114;-81
2023/02/26 16:43:24;;;;;;;4.32;2.00;;;;;;;2.40;60.66;100655.88;20860926;28;20103;-82
2023/02/26 16:53:25;;;;;;;7.88;2.70;;;;;;;2.25;61.97;100671.91;20886921;28;20045;-82
2023/02/26 17:03:27;;;;;;;5.20;1.90;;;;;;;2.22;60.31;100686.47;20874716;28;20176;-83
2023/02/26 17:13:28;;;;;;;5.60;2.20;;;;;;;2.13;60.10;100699.16;20857728;28;20136;-82
2023/02/26 17:23:29;;;;;;;7.07;2.22;;;;;;;2.04;61.06;100710.16;20857149;28;20056;-82
2023/02/26 17:33:31;;;;;;;4.40;1.63;;;;;;;2.07;61.22;100712.81;20854140;28;20108;-83
2023/02/26 17:43:32;;;;;;;5.38;1.95;;;;;;;2.08;60.77;100729.19;20863485;28;20049;-82
2023/02/26 17:53:39;;;;;;;2.92;1.20;;;;;;;2.10;59.77;100750.72;20851792;28;20041;-83
2023/02/26 18:03:42;;;;;;;6.35;1.67;;;;;;;1.91;60.72;100763.19;20848870;28;20046;-83
2023/02/26 18:13:43;;;;;;;5.25;1.52;;;;;;;1.90;59.95;100763.16;20848468;28;20116;-83
2023/02/26 18:23:44;;;;;;;4.30;1.30;;;;;;;1.71;60.04;100797.94;20854577;28;21567;-83
2023/02/26 18:33:46;;;;;;;2.65;1.27;;;;;;;1.61;58.51;100783.94;20843819;28;20462;-83
2023/02/26 18:43:47;;;;;;;3.40;1.33;;;;;;;1.35;59.55;100795.28;20845463;28;20049;-83
2023/02/26 18:53:48;;;;;;;2.35;1.13;;;;;;;1.39;59.16;100802.22;20844550;28;20056;-83
2023/02/26 19:03:49;;;;;;;5.15;1.35;;;;;;;1.27;59.56;100813.97;20843531;28;20466;-82
2023/02/26 19:13:51;;;;;;;3.85;1.05;;;;;;;1.19;60.04;100815.44;20844164;28;20037;-83
2023/02/26 19:23:53;;;;;;;4.63;1.58;;;;;;;1.08;61.07;100827.16;20840770;28;20517;-83
2023/02/26 19:33:54;;;;;;;4.90;1.50;;;;;;;0.97;60.88;100828.56;20848828;28;20041;-81
2023/02/26 19:43:55;;;;;;;4.03;1.30;;;;;;;0.90;61.30;100831.75;20842408;28;20483;-82
2023/02/26 19:53:56;;;;;;;4.80;1.40;;;;;;;0.79;58.94;100846.03;20852850;28;20524;-82
2023/02/26 20:03:58;;;;;;;2.50;0.93;;;;;;;0.80;58.29;100850.38;20905980;28;20049;-82
2023/02/26 20:14:00;;;;;;;5.68;1.30;;;;;;;0.68;59.11;100851.75;20864263;28;20041;-82
2023/02/26 20:24:02;;;;;;;3.97;1.50;;;;;;;0.57;59.76;100855.66;20848477;28;20045;-82
2023/02/26 20:34:03;;;;;;;3.53;1.40;;;;;;;0.47;59.90;100861.34;20836188;28;20045;-83
2023/02/26 20:44:05;;;;;;;9.55;2.65;;;;;;;0.37;61.03;100879.91;20834477;28;20041;-82
2023/02/26 20:54:06;;;;;;;5.82;1.92;;;;;;;0.31;61.14;100890.00;20837231;28;20050;-82
2023/02/26 21:04:07;;;;;;;4.72;1.08;;;;;;;0.25;61.49;100904.44;20837317;28;20461;-83
2023/02/26 21:14:09;;;;;;;4.70;1.40;;;;;;;0.19;62.90;100903.34;20836750;28;20457;-82
2023/02/26 21:24:10;;;;;;;4.28;1.40;;;;;;;0.16;64.09;100900.69;20837577;28;20069;-81
2023/02/26 21:34:12;;;;;;;6.93;1.60;;;;;;;0.11;65.75;100913.38;20844752;28;20464;-82
2023/02/26 21:44:33;;;;;;;4.10;1.30;;;;;;;0.03;67.55;100908.78;20846014;28;20139;-82
2023/02/26 21:54:34;;;;;;;5.75;1.70;;;;;;;0.02;69.14;100913.06;20844959;28;20048;-83
2023/02/26 22:04:35;;;;;;;4.07;1.10;;;;;;;-0.11;71.02;100914.31;20846535;28;20433;-80
2023/02/26 22:14:37;;;;;;;3.05;1.30;;;;;;;-0.16;72.54;100921.00;20841104;28;20049;-81
2023/02/26 22:24:39;;;;;;;3.83;1.40;;;;;;;-0.22;74.13;100923.38;20839454;28;20064;-82
2023/02/26 22:34:41;;;;;;;3.75;1.20;;;;;;;-0.27;75.16;100920.63;20832164;28;20045;-82
2023/02/26 22:44:44;;;;;;;6.53;1.63;;;;;;;-0.29;75.65;100917.13;20832264;28;20061;-82
2023/02/26 22:54:46;;;;;;;6.75;1.50;;;;;;;-0.36;77.00;100910.00;20833409;28;20418;-82
2023/02/26 23:04:47;;;;;;;2.40;0.98;;;;;;;-0.42;78.15;100914.06;20831875;28;20494;-82
2023/02/26 23:14:48;;;;;;;6.32;1.20;;;;;;;-0.41;78.75;100905.50;20836016;28;20057;-81
2023/02/26 23:24:49;;;;;;;4.03;1.23;;;;;;;-0.34;78.69;100922.91;20806892;23;20519;-67
2023/02/26 23:34:51;;;;;;;2.55;0.93;;;;;;;-0.37;80.35;100917.66;20715356;28;20461;-66
2023/02/26 23:44:52;;;;;;;4.00;1.27;;;;;;;-0.36;81.55;100922.00;20614171;23;20115;-72
2023/02/26 23:54:55;;;;;;;5.70;1.10;;;;;;;-0.42;82.85;100912.34;20581155;28;20129;-70
